Shenandoah National Park, VA

9:28 AM EDT op 16 september 2014 (GMT -0400)
Lord Willing Dr. | Change Station
CLOSE
Current Station
Persoonlijk weerstation
Location: Culpeper, VA
Geometrische hoogte: 499 ft
Nabije weerstations

Hoogte 499 ft 38.54 °N, 77.94 °W | Updated 10 seconds ago

Helder
Helder
64.4 °F
Voelt als 64.4 °F
N
0.0
Wind Variabel Wind van zuid
Gusts 2.0 mijl/u

Vandaag
Hoog -- | Laag -- °F
--% Kans op neerslag
Gisteren
Hoog -- | Laag -- °F
Precip. -- inches
6:54 AM 7:18 PM
Laatste kwartier, 45% visible
Druk 30.04 inches
Zicht 10.0 mijlen
Wolken Licht bewolkt 11000 ft
Dauwpunt 63 °F
Vochtigheid 96%
Neerslag 0.00 inches
Dikte sneeuw Niet beschikbaar.
UV 2 van de 12
Pollen 5.00 van de 12
Luchtkwaliteit Niet beschikbaar.
Flu Activity Niet beschikbaar.
METAR KHWY 161315Z AUTO 00000KT 10SM SCT110 22/20 A3004 RMK AO2 T02190197

More Conditions Fewer Conditions

Druk 30.04 inches
Zicht 10.0 mijlen
Wolken Licht bewolkt 11000 ft
Dauwpunt 63 °F
Vochtigheid 96%
Neerslag 0.00 inches
Dikte sneeuw Niet beschikbaar.
UV 2 van de 12
Pollen 5.00 van de 12
Luchtkwaliteit Niet beschikbaar.
Flu Activity Niet beschikbaar.
METAR KHWY 161315Z AUTO 00000KT 10SM SCT110 22/20 A3004 RMK AO2 T02190197

More Conditions Fewer Conditions

10-Day Weather Forecast

Almanac

Astronomie

Sep. 16, 2014 Opkomst Ondergang
Werkelijke tijd 6:54 AM EDT 7:18 PM EDT
Burgerlijke schemering 6:27 AM EDT 7:44 PM EDT
Nautische schemering 5:56 AM EDT 8:15 PM EDT
Astronomische schemering 5:24 AM EDT 8:47 PM EDT
Maan 12:05 AM EDT 2:37 PM EDT
Golflengte van het zichtbare licht 13h 17m
Daglengte
12h 24m
Tomorrow will be 2m 28s shorter.
Laatste kwartier, 45% of the Moon is Illuminated
Vandaag
Laatste kwartier
sep 24
Nieuw
oktober 1
Eerste kwartier
oktober 8
Volle maan
oktober 15
Laatste kwartier

Extremen vandaag

State Highs State Lows

Community

WunderPhotos

Upload Photos

1,753,759 foto’s ge-upload!

Nearby

Dikte sneeuw

Station Depth Geometrische hoogte
Er is geen verse sneeuw gerapporteerd.

Aardbevingen

Stad Distance Mag. Time & Date
No recent earthquake activity has been reported nearby.
Minimum magnitude displayed is 2.5.

Watertemperatuur langs de kust

Plaats Temperatuur
Geen meldingen van stations

Nabije weerstations